Terminal Aerodrome Forecast
Issued by NWS

Current Version | Previous Version | Text Only | Print | Product List | Glossary Off
Versions: 1 2 3 4 5 6 7 8 9 10 11 12 13 14 15 16 17 18 19 20 21 22 23 24

421
FTUS41 KILN 201120
TAFLCK
TAF
KLCK 201120Z 2012/2112 06007KT 4SM BR OVC003
      TEMPO 2012/2014 1SM BR OVC005
     FM201400 09006KT P6SM BKN008
     FM201500 14006KT P6SM SCT012 SCT060
     FM202100 16006KT P6SM VCSH BKN050
     FM210200 14005KT P6SM SCT050 BKN150
     FM210900 15005KT P6SM -SHRA VCTS SCT030CB BKN070=

USA.gov is the U.S. government's official web portal to all federal, state and local government web resources and services.